Latest Weather Observations for Bradshaw (Angallari Valley) (Defence)

IDD60801

Issued at 6:01 am CST Thursday 16 August 2018 (issued every 10 minutes, with the page automatically refreshed every 10 minutes)

About weather observations | Map of weather stations | Latest weather observations for NT | Other Formats
Station Details ID: 014808 Name: BRADSHAW (ANGALLARI VALLEY) (DEFENCE) Lat: -15.44 Lon: 130.57 Height: 60.0 m
Data from the previous 72 hours. | See also: Recent months at Bradshaw (Angallari Valley) (Defence)
Date/Time
CST
Temp
°C
App
Temp
°C
Dew
Point
°C
Rel
Hum
%
Delta-T
°C
Wind Press
QNH
hPa
Press
MSL
hPa
Rain since
9am
mm
Dir  Spd
km/h
Gust
km/h
Spd
kts
Gust
kts
16/06:00am 15.7 12.4 -0.9 32 6.9 ESE 6 9 3 5 1013.9 1013.6 0.0
16/05:30am 14.4 11.5 -1.2 34 6.4 SE 4 6 2 3 1013.9 1013.6 0.0
16/05:00am 15.3 12.4 -1.3 32 6.9 NE 4 7 2 4 1013.5 1013.2 0.0
16/04:30am 15.9 12.7 -0.8 32 7.0 E 6 9 3 5 1013.4 1013.1 0.0
16/04:00am 15.8 12.6 -0.8 32 7.0 NNE 6 9 3 5 1013.5 1013.2 0.0
16/03:30am 14.4 11.9 -1.2 34 6.4 SE 2 4 1 2 1013.4 1013.1 0.0
16/03:00am 14.7 12.1 -1.4 33 6.6 NW 2 4 1 2 1013.6 1013.3 0.0
16/02:30am 15.2 13.0 -1.4 32 6.8 CALM 0 4 0 2 1013.8 1013.5 0.0
16/02:00am 16.0 13.5 -1.1 31 7.1 NNW 2 6 1 3 1013.8 1013.5 0.0
16/01:30am 16.7 13.7 -1.9 28 7.7 NNW 4 6 2 3 1013.9 1013.6 0.0
16/01:00am 17.4 14.1 -1.3 28 7.9 SW 6 7 3 4 1014.0 1013.7 0.0
16/12:30am 16.6 14.0 -1.5 29 7.5 WSW 2 4 1 2 1014.1 1013.8 0.0
16/12:00am 18.0 15.8 -1.8 26 8.3 CALM 0 2 0 1 1014.4 1014.1 0.0
 
Date/Time
CST
Temp
°C
App
Temp
°C
Dew
Point
°C
Rel
Hum
%
Delta-T
°C
Wind Press
QNH
hPa
Press
MSL
hPa
Rain since
9am
mm
Dir  Spd
km/h
Gust
km/h
Spd
kts
Gust
kts
15/11:30pm 19.4 16.8 -1.7 24 9.0 ESE 2 6 1 3 1014.6 1014.3 0.0
15/11:00pm 20.6 17.2 -1.8 22 9.6 SE 6 7 3 4 1014.5 1014.2 0.0
15/10:30pm 20.6 17.3 -1.2 23 9.5 SSE 6 7 3 4 1014.6 1014.3 0.0
15/10:00pm 20.2 16.9 -1.6 23 9.4 SSE 6 6 3 3 1014.5 1014.2 0.0
15/09:30pm 21.0 17.7 -1.5 22 9.7 S 6 7 3 4 1014.4 1014.1 0.0
15/09:00pm 21.9 18.9 -2.0 20 10.3 SE 4 6 2 3 1014.2 1013.9 0.0
15/08:30pm 22.6 19.3 -1.5 20 10.6 SSE 6 6 3 3 1013.9 1013.6 0.0
15/08:00pm 23.4 20.4 -1.5 19 11.0 SSE 4 6 2 3 1013.7 1013.4 0.0
15/07:30pm 24.2 21.1 -2.4 17 11.7 SSE 4 6 2 3 1013.4 1013.1 0.0
15/07:00pm 25.7 22.6 -2.8 15 12.5 SSE 4 6 2 3 1013.1 1012.8 0.0
15/06:30pm 28.3 25.3 -1.7 14 13.8 SSE 4 7 2 4 1013.0 1012.7 0.0
15/06:00pm 29.9 26.6 -1.5 13 14.6 SSE 6 9 3 5 1012.7 1012.4 0.0
15/05:30pm 30.7 27.8 -0.8 13 14.9 SW 4 6 2 3 1012.7 1012.4 0.0
15/05:00pm 31.0 27.6 -0.6 13 15.1 SE 7 15 4 8 1012.6 1012.3 0.0
15/04:30pm 31.0 27.8 -0.6 13 15.1 SE 6 13 3 7 1012.7 1012.4 0.0
15/04:00pm 30.7 27.3 -0.8 13 14.9 SSW 7 15 4 8 1012.7 1012.4 0.0
15/03:30pm 31.3 27.9 -0.4 13 15.2 ENE 7 13 4 7 1013.1 1012.8 0.0
15/03:00pm 30.8 27.0 -0.8 13 15.0 E 9 19 5 10 1013.5 1013.2 0.0
15/02:30pm 30.4 26.9 -1.1 13 14.8 SSW 7 15 4 8 1013.9 1013.6 0.0
15/02:00pm 30.6 26.8 -0.9 13 14.9 ESE 9 17 5 9 1014.4 1014.1 0.0
15/01:30pm 30.3 26.1 -1.2 13 14.8 E 11 24 6 13 1014.8 1014.5 0.0
15/01:00pm 29.8 25.7 -0.5 14 14.4 SE 11 19 6 10 1015.3 1015.1 0.0
15/12:30pm 29.6 25.2 0.2 15 14.1 E 13 20 7 11 1015.7 1015.5 0.0
15/12:00pm 29.1 24.8 0.7 16 13.7 ESE 13 28 7 15 1016.5 1016.2 0.0
15/11:30am 28.1 24.4 2.3 19 12.7 ENE 11 19 6 10 1017.2 1016.9 0.0
15/11:00am 27.3 24.4 2.4 20 12.2 ENE 7 15 4 8 1017.7 1017.4 0.0
15/10:30am 25.9 22.0 1.2 20 11.7 E 11 19 6 10 1018.1 1017.8 0.0
15/10:00am 24.7 20.6 -0.4 19 11.5 E 11 17 6 9 1018.2 1017.9 0.0
15/09:30am 23.8 19.8 -5.3 14 12.0 E 7 11 4 6 1018.2 1017.9 0.0
15/09:00am 22.1 18.6 -6.6 14 11.3 E 4 9 2 5 1018.2 1017.9 0.0
15/08:30am 18.7 16.1 -5.4 19 9.4 CALM 0 2 0 1 1017.9 1017.6 0.0
15/08:00am 14.7 11.8 -4.6 26 7.4 S 2 4 1 2 1017.6 1017.3 0.0
15/07:30am 11.6 8.5 -5.8 29 6.2 N 2 7 1 4 1017.4 1017.1 0.0
15/07:00am 11.3 8.2 -6.1 29 6.2 E 2 6 1 3 1016.9 1016.6 0.0
15/06:30am 11.6 8.5 -6.3 28 6.3 SSE 2 4 1 2 1016.7 1016.4 0.0
15/06:00am 12.2 9.5 -6.2 27 6.6 CALM 0 2 0 1 1016.7 1016.4 0.0
15/05:30am 12.7 9.9 -6.8 25 6.9 CALM 0 0 0 0 1016.3 1016.1 0.0
15/05:00am 14.5 10.9 -6.9 22 7.7 NE 4 6 2 3 1016.2 1016.0 0.0
15/04:30am 16.1 12.1 -5.6 22 8.2 SE 7 9 4 5 1016.1 1015.9 0.0
15/04:00am 12.9 9.0 -6.1 26 6.9 SSE 6 7 3 4 1016.3 1016.1 0.0
15/03:30am 12.5 9.0 -6.0 27 6.7 SE 4 6 2 3 1016.7 1016.4 0.0
15/03:00am 13.0 9.5 -6.5 25 7.0 ENE 4 4 2 2 1016.7 1016.4 0.0
15/02:30am 14.0 11.2 -6.8 23 7.5 CALM 0 0 0 0 1016.5 1016.2 0.0
15/02:00am 15.6 12.1 -6.0 22 8.1 NW 4 7 2 4 1016.3 1016.1 0.0
15/01:30am 15.6 12.4 -7.2 20 8.3 NNW 2 4 1 2 1016.3 1016.1 0.0
15/01:00am 18.1 14.5 -7.3 17 9.5 N 4 7 2 4 1016.5 1016.2 0.0
15/12:30am 20.8 16.6 -7.6 14 10.9 SE 7 13 4 7 1016.3 1016.1 0.0
15/12:00am 21.0 16.8 -7.5 14 10.9 SE 7 13 4 7 1016.5 1016.2 0.0
 
Date/Time
CST
Temp
°C
App
Temp
°C
Dew
Point
°C
Rel
Hum
%
Delta-T
°C
Wind Press
QNH
hPa
Press
MSL
hPa
Rain since
9am
mm
Dir  Spd
km/h
Gust
km/h
Spd
kts
Gust
kts
14/11:30pm 21.1 16.5 -7.4 14 11.0 SE 9 13 5 7 1016.5 1016.2 0.0
14/11:00pm 21.2 16.7 -7.3 14 11.0 SE 9 11 5 6 1016.3 1016.1 0.0
14/10:30pm 21.1 16.9 -7.4 14 11.0 SE 7 11 4 6 1016.3 1016.1 0.0
14/10:00pm 20.9 16.8 -6.7 15 10.8 SE 7 11 4 6 1016.3 1016.1 0.0
14/09:30pm 20.4 16.4 -7.1 15 10.6 SSE 6 7 3 4 1016.2 1016.0 0.0
14/09:00pm 21.7 17.8 -6.9 14 11.2 SSE 6 7 3 4 1016.2 1016.0 0.0
14/08:30pm 21.1 17.2 -6.5 15 10.8 SSE 6 9 3 5 1016.0 1015.8 0.0
14/08:00pm 21.6 17.7 -7.0 14 11.2 SE 6 7 3 4 1015.7 1015.5 0.0
14/07:30pm 21.9 18.4 -6.8 14 11.3 SSE 4 6 2 3 1015.5 1015.3 0.0
14/07:00pm 24.1 20.5 -7.0 12 12.5 SSE 4 6 2 3 1015.3 1015.1 0.0
14/06:30pm 26.9 23.1 -6.0 11 13.8 SSE 6 9 3 5 1015.0 1014.7 0.0
14/06:00pm 28.3 24.2 -6.2 10 14.6 SE 7 15 4 8 1014.9 1014.6 0.0
14/05:30pm 28.8 24.4 -5.8 10 14.8 SSE 9 17 5 9 1014.7 1014.4 0.0
14/05:00pm 29.1 24.7 -5.6 10 15.0 SSE 9 19 5 10 1014.6 1014.3 0.0
14/04:30pm 29.5 24.8 -5.3 10 15.1 ESE 11 26 6 14 1014.7 1014.4 0.0
14/04:00pm 29.4 24.7 -5.4 10 15.1 E 11 19 6 10 1014.9 1014.6 0.0
14/03:30pm 29.1 25.1 -5.6 10 14.9 NE 7 15 4 8 1015.3 1015.1 0.0
14/03:00pm 28.8 24.8 -5.8 10 14.8 ESE 7 19 4 10 1015.7 1015.5 0.0
14/02:30pm 28.6 23.8 -6.0 10 14.7 ENE 11 20 6 11 1016.2 1016.0 0.0
14/02:00pm 27.8 22.9 -6.6 10 14.4 SE 11 19 6 10 1016.8 1016.5 0.0
14/01:30pm 27.7 22.5 -6.6 10 14.3 E 13 20 7 11 1017.4 1017.1 0.0
14/01:00pm 27.2 22.0 -5.8 11 13.9 E 13 20 7 11 1018.0 1017.7 0.0
14/12:30pm 26.4 21.6 -6.4 11 13.6 ESE 11 22 6 12 1018.6 1018.3 0.0
14/12:00pm 25.7 20.8 -6.9 11 13.3 SE 11 20 6 11 1019.4 1019.1 0.0
14/11:30am 24.4 19.0 -7.9 11 12.7 ESE 13 20 7 11 1020.0 1019.7 0.0
14/11:00am 23.6 18.2 -8.5 11 12.4 SE 13 20 7 11 1020.5 1020.2 0.0
14/10:30am 22.6 17.6 -8.2 12 11.8 ESE 11 24 6 13 1021.2 1020.9 0.0
14/10:00am 22.0 15.8 -8.7 12 11.7 E 17 26 9 14 1021.4 1021.1 0.0
14/09:30am 21.5 16.4 -9.1 12 11.4 E 11 24 6 13 1021.4 1021.1 0.0
14/09:00am 20.7 15.3 -8.7 13 11.0 E 13 24 7 13 1021.3 1021.0 0.0
14/08:30am 19.7 14.2 -9.5 13 10.6 ESE 13 24 7 13 1021.2 1020.9 0.0
14/08:00am 18.9 14.2 -9.1 14 10.2 E 9 19 5 10 1021.0 1020.7 0.0
14/07:30am 17.6 13.2 -10.2 14 9.7 ESE 7 15 4 8 1020.7 1020.4 0.0
14/07:00am 17.3 13.1 -10.4 14 9.6 E 6 13 3 7 1020.5 1020.2 0.0
14/06:30am 16.8 12.4 -9.9 15 9.3 ESE 7 11 4 6 1020.2 1019.9 0.0
14/06:00am 17.6 13.2 -10.2 14 9.7 E 7 19 4 10 1020.0 1019.7 0.0
14/05:30am 17.1 12.9 -9.7 15 9.4 ESE 6 11 3 6 1019.7 1019.4 0.0
14/05:00am 15.6 11.8 -10.1 16 8.8 E 4 9 2 5 1019.6 1019.3 0.0
14/04:30am 17.0 13.5 -10.7 14 9.5 E 2 7 1 4 1019.5 1019.2 0.0
14/04:00am 18.1 14.3 -9.8 14 9.9 E 4 9 2 5 1019.2 1018.9 0.0
14/03:30am 19.0 14.8 -10.0 13 10.3 ESE 6 13 3 7 1019.1 1018.8 0.0
14/03:00am 19.7 15.0 -9.5 13 10.6 ESE 9 20 5 11 1019.2 1018.9 0.0
14/02:30am 19.6 15.4 -9.5 13 10.6 ESE 6 13 3 7 1019.4 1019.1 0.0
14/02:00am 20.1 15.1 -8.2 14 10.6 SE 11 20 6 11 1019.4 1019.1 0.0
14/01:30am 20.1 15.5 -8.2 14 10.6 SE 9 19 5 10 1019.7 1019.4 0.0
14/01:00am 19.9 15.7 -7.5 15 10.4 SE 7 15 4 8 1019.9 1019.6 0.0
14/12:30am 20.6 15.6 -7.8 14 10.8 SE 11 20 6 11 1019.9 1019.6 0.0
14/12:00am 20.9 16.0 -7.6 14 10.9 SE 11 19 6 10 1019.8 1019.5 0.0
 
Date/Time
CST
Temp
°C
App
Temp
°C
Dew
Point
°C
Rel
Hum
%
Delta-T
°C
Wind Press
QNH
hPa
Press
MSL
hPa
Rain since
9am
mm
Dir  Spd
km/h
Gust
km/h
Spd
kts
Gust
kts
13/11:30pm 21.2 16.7 -7.3 14 11.0 SE 9 17 5 9 1019.7 1019.4 0.0
13/11:00pm 21.9 16.6 -6.8 14 11.3 SSE 13 24 7 13 1019.6 1019.3 0.0
13/10:30pm 19.6 15.9 -4.6 19 9.7 SE 6 13 3 7 1019.5 1019.2 0.0
13/10:00pm 17.3 14.4 -4.6 22 8.6 SE 2 4 1 2 1019.4 1019.1 0.0
13/09:30pm 19.3 16.3 -4.9 19 9.6 ESE 2 4 1 2 1019.2 1018.9 0.0
13/09:00pm 20.9 17.6 -4.3 18 10.3 SE 4 7 2 4 1018.8 1018.5 0.0
13/08:30pm 22.2 18.3 -4.8 16 11.1 SSE 7 9 4 5 1018.5 1018.2 0.0
13/08:00pm 22.9 19.0 -5.1 15 11.5 SSE 7 13 4 7 1018.1 1017.8 0.0
13/07:30pm 23.8 19.5 -5.3 14 12.0 SSE 9 15 5 8 1017.8 1017.5 0.0
13/07:00pm 24.7 20.8 -4.6 14 12.4 SE 7 13 4 7 1017.6 1017.3 0.0
13/06:30pm 25.9 21.2 -4.6 13 13.0 SE 11 20 6 11 1017.4 1017.1 0.0
13/06:00pm 27.0 21.9 -4.8 12 13.6 SE 13 22 7 12 1017.2 1016.9 0.0
13/05:30pm 28.0 23.8 -4.0 12 14.0 SE 9 24 5 13 1017.0 1016.7 0.0
13/05:00pm 28.3 23.7 -3.8 12 14.2 SE 11 19 6 10 1017.0 1016.7 0.0
13/04:30pm 28.0 23.0 -4.0 12 14.0 SE 13 20 7 11 1017.0 1016.7 0.0
13/04:00pm 28.3 23.0 -3.8 12 14.2 SE 15 22 8 12 1017.0 1016.7 0.0
13/03:30pm 27.8 22.4 -4.2 12 14.0 SSE 15 24 8 13 1017.2 1016.9 0.0
13/03:00pm 27.7 22.7 -4.3 12 13.9 SE 13 28 7 15 1017.5 1017.2 0.0
13/02:30pm 26.9 21.5 -4.9 12 13.6 SE 15 26 8 14 1018.2 1017.9 0.0
13/02:00pm 27.0 22.1 -3.7 13 13.4 SE 13 24 7 13 1018.8 1018.5 0.0
13/01:30pm 25.7 20.7 -4.7 13 12.9 SE 13 26 7 14 1019.4 1019.1 0.0
13/01:00pm 25.1 20.1 -4.2 14 12.5 ESE 13 20 7 11 1019.9 1019.6 0.0
13/12:30pm 24.2 18.4 -4.9 14 12.1 ESE 17 28 9 15 1020.4 1020.1 0.0
13/12:00pm 23.9 18.8 -5.2 14 12.0 SE 13 20 7 11 1021.0 1020.7 0.0
13/11:30am 22.7 17.2 -5.2 15 11.4 SE 15 24 8 13 1021.6 1021.3 0.0
13/11:00am 21.9 16.0 -5.9 15 11.1 ESE 17 28 9 15 1022.0 1021.7 0.0
13/10:30am 21.4 15.5 -5.4 16 10.7 ESE 17 30 9 16 1022.3 1022.0 0.0
13/10:00am 20.9 15.4 -5.8 16 10.6 SE 15 28 8 15 1022.5 1022.2 0.0
13/09:30am 20.1 13.9 -4.9 18 10.0 ESE 19 32 10 17 1022.5 1022.2 0.0
13/09:00am 19.6 13.7 -5.3 18 9.8 ESE 17 37 9 20 1022.3 1022.0 0.0
13/08:30am 18.9 13.4 -5.2 19 9.5 SE 15 35 8 19 1021.9 1021.6 0.0
13/08:00am 18.1 12.6 -5.2 20 9.1 SE 15 28 8 15 1021.8 1021.5 0.0
13/07:30am 17.4 11.9 -5.8 20 8.9 SE 15 24 8 13 1021.4 1021.1 0.0
13/07:00am 17.6 12.1 -5.6 20 8.9 SE 15 28 8 15 1020.9 1020.6 0.0
13/06:30am 17.8 12.2 -6.1 19 9.1 SE 15 39 8 21 1020.5 1020.2 0.0

Other Formats:

Comma delimited format used in spreadsheet applications
http://www.bom.gov.au/fwo/IDD60801/IDD60801.94221.axf

JavaScript Object Notation format (JSON) in row-major order
http://www.bom.gov.au/fwo/IDD60801/IDD60801.94221.json